createdAt,value
2018-11-29T00:00:19.204Z,0.00
2018-11-29T00:01:19.215Z,0.00
2018-11-29T00:02:19.217Z,0.00
2018-11-29T00:03:19.230Z,0.00
2018-11-29T00:04:19.231Z,0.00
2018-11-29T00:05:19.273Z,0.00
2018-11-29T00:06:19.258Z,0.00
2018-11-29T00:07:19.260Z,0.00
2018-11-29T00:08:19.272Z,0.00
2018-11-29T00:09:19.275Z,0.00
2018-11-29T00:10:19.289Z,0.00
2018-11-29T00:11:19.301Z,0.00
2018-11-29T00:12:19.302Z,0.00
2018-11-29T00:13:19.318Z,0.00
2018-11-29T00:14:19.329Z,0.00
2018-11-29T00:15:19.329Z,0.00
2018-11-29T00:16:19.345Z,0.00
2018-11-29T00:17:20.182Z,0.00
2018-11-29T00:18:19.358Z,0.00
2018-11-29T00:19:19.374Z,0.00
2018-11-29T00:20:19.373Z,0.00
2018-11-29T00:21:19.389Z,0.00
2018-11-29T00:22:19.388Z,0.00
2018-11-29T00:23:19.401Z,0.00
2018-11-29T00:24:19.414Z,0.00
2018-11-29T00:25:19.414Z,0.00
2018-11-29T00:26:19.430Z,0.00
2018-11-29T00:27:19.441Z,0.00
2018-11-29T00:28:19.443Z,0.00
2018-11-29T00:29:19.458Z,0.00
2018-11-29T00:30:19.459Z,0.00
2018-11-29T00:31:19.471Z,0.00
2018-11-29T00:32:19.485Z,0.00
2018-11-29T00:33:19.487Z,0.00
2018-11-29T00:34:19.511Z,0.00
2018-11-29T00:35:19.513Z,0.00
2018-11-29T00:36:19.514Z,0.00
2018-11-29T00:37:19.527Z,0.00
2018-11-29T00:38:19.529Z,0.00
2018-11-29T00:39:19.543Z,0.00
2018-11-29T00:40:19.547Z,0.00
2018-11-29T00:41:19.570Z,0.00
2018-11-29T00:42:19.571Z,0.00
2018-11-29T00:43:19.571Z,0.00
2018-11-29T00:44:19.585Z,0.00
2018-11-29T00:45:19.615Z,0.00
2018-11-29T00:46:19.599Z,0.00
2018-11-29T00:47:19.613Z,0.00
2018-11-29T00:48:19.613Z,0.00
2018-11-29T00:49:19.633Z,0.00
2018-11-29T00:50:19.654Z,0.00
2018-11-29T00:51:19.642Z,0.00
2018-11-29T00:52:19.656Z,0.00
2018-11-29T00:53:19.658Z,0.00
2018-11-29T00:54:19.670Z,0.00
2018-11-29T00:55:19.689Z,0.00
2018-11-29T00:56:19.686Z,0.00
2018-11-29T00:57:19.716Z,0.00
2018-11-29T00:58:19.700Z,0.00
2018-11-29T00:59:19.713Z,0.00
2018-11-29T01:00:19.726Z,0.00
2018-11-29T01:01:19.726Z,0.00
2018-11-29T01:02:19.741Z,0.00
2018-11-29T01:03:19.757Z,0.00
2018-11-29T01:04:19.756Z,0.00
2018-11-29T01:05:19.769Z,0.00
2018-11-29T01:06:19.770Z,0.00
2018-11-29T01:07:19.782Z,0.00
2018-11-29T01:08:19.784Z,0.00
2018-11-29T01:09:19.798Z,0.00
2018-11-29T01:10:19.812Z,0.00
2018-11-29T01:11:19.812Z,0.00
2018-11-29T01:12:19.826Z,0.00
2018-11-29T01:13:19.828Z,0.00
2018-11-29T01:14:19.841Z,0.00
2018-11-29T01:15:19.856Z,0.00
2018-11-29T01:16:19.855Z,0.00
2018-11-29T01:17:19.870Z,0.00
2018-11-29T01:18:19.883Z,0.00
2018-11-29T01:19:19.885Z,0.00
2018-11-29T01:20:19.909Z,0.00
2018-11-29T01:21:19.901Z,0.00
2018-11-29T01:22:19.912Z,0.00
2018-11-29T01:23:19.913Z,0.00
2018-11-29T01:24:19.926Z,0.00
2018-11-29T01:25:19.943Z,0.00
2018-11-29T01:26:19.941Z,0.00
2018-11-29T01:27:19.953Z,0.00
2018-11-29T01:28:19.969Z,0.00
2018-11-29T01:29:19.971Z,0.00
2018-11-29T01:30:19.983Z,0.00
2018-11-29T01:31:19.982Z,0.00
2018-11-29T01:32:19.997Z,0.00
2018-11-29T01:33:20.010Z,0.00
2018-11-29T01:34:20.012Z,0.00
2018-11-29T01:35:20.025Z,0.00
2018-11-29T01:36:20.026Z,0.00
2018-11-29T01:37:20.039Z,0.00
2018-11-29T01:38:20.056Z,0.00
2018-11-29T01:39:20.054Z,0.00
2018-11-29T01:40:20.089Z,0.00
2018-11-29T01:41:20.068Z,0.00
2018-11-29T01:42:20.083Z,0.00
2018-11-29T01:43:20.095Z,0.00
2018-11-29T01:44:20.096Z,0.00
2018-11-29T01:45:20.110Z,0.00
2018-11-29T01:46:20.111Z,0.00
2018-11-29T01:47:20.124Z,0.00
2018-11-29T01:48:20.142Z,0.00
2018-11-29T01:49:20.143Z,0.00
2018-11-29T01:50:20.154Z,0.00
2018-11-29T01:51:20.154Z,0.00
2018-11-29T01:52:20.167Z,0.00
2018-11-29T01:53:20.180Z,0.00
2018-11-29T01:54:20.181Z,0.00
2018-11-29T01:55:20.196Z,0.00
2018-11-29T01:56:20.199Z,0.00
2018-11-29T01:57:20.209Z,0.00
2018-11-29T01:58:20.224Z,0.00
2018-11-29T01:59:20.226Z,0.00
2018-11-29T02:00:20.237Z,0.00
2018-11-29T02:01:20.240Z,0.00
2018-11-29T02:02:20.253Z,0.00
2018-11-29T02:03:20.255Z,0.00
2018-11-29T02:04:20.267Z,0.00
2018-11-29T02:05:20.281Z,0.00
2018-11-29T02:06:20.283Z,0.00
2018-11-29T02:07:20.295Z,0.00
2018-11-29T02:08:20.297Z,0.00
2018-11-29T02:09:20.311Z,0.00
2018-11-29T02:10:20.335Z,0.00
2018-11-29T02:11:20.337Z,0.00
2018-11-29T02:12:20.340Z,0.00
2018-11-29T02:13:20.340Z,0.00
2018-11-29T02:14:20.352Z,0.00
2018-11-29T02:15:20.367Z,0.00
2018-11-29T02:16:20.368Z,0.00
2018-11-29T02:17:20.395Z,0.00
2018-11-29T02:18:20.395Z,0.00
2018-11-29T02:19:20.396Z,0.00
2018-11-29T02:20:20.410Z,0.00
2018-11-29T02:21:20.412Z,0.00
2018-11-29T02:22:20.427Z,0.00
2018-11-29T02:23:20.424Z,0.00
2018-11-29T02:24:20.438Z,0.00
2018-11-29T02:25:20.451Z,0.00
2018-11-29T02:26:20.452Z,0.00
2018-11-29T02:27:20.465Z,0.00
2018-11-29T02:28:20.467Z,0.00
2018-11-29T02:29:20.481Z,0.00
2018-11-29T02:30:20.499Z,0.00
2018-11-29T02:31:20.499Z,0.00
2018-11-29T02:32:20.510Z,0.00
2018-11-29T02:33:20.509Z,0.00
2018-11-29T02:34:20.523Z,0.00
2018-11-29T02:35:20.525Z,0.00
2018-11-29T02:36:20.538Z,0.00
2018-11-29T02:37:20.551Z,0.00
2018-11-29T02:38:20.553Z,0.00
2018-11-29T02:39:20.623Z,0.00
2018-11-29T02:40:20.578Z,0.00
2018-11-29T02:41:20.580Z,0.00
2018-11-29T02:42:20.595Z,0.00
2018-11-29T02:43:20.596Z,0.00
2018-11-29T02:44:20.607Z,0.00
2018-11-29T02:45:20.610Z,0.00
2018-11-29T02:46:20.623Z,0.00
2018-11-29T02:47:20.635Z,0.00
2018-11-29T02:48:20.637Z,0.00
2018-11-29T02:49:20.654Z,0.00
2018-11-29T02:50:20.664Z,0.00
2018-11-29T02:51:20.665Z,0.00
2018-11-29T02:52:20.678Z,0.00
2018-11-29T02:53:20.679Z,0.00
2018-11-29T02:54:20.694Z,0.00
2018-11-29T02:55:20.695Z,0.00
2018-11-29T02:56:20.709Z,0.00
2018-11-29T02:57:20.722Z,0.00
2018-11-29T02:58:20.722Z,0.00
2018-11-29T02:59:20.736Z,0.00
2018-11-29T03:00:20.751Z,0.00
2018-11-29T03:01:20.750Z,0.00
2018-11-29T03:02:20.763Z,0.00
2018-11-29T03:03:20.766Z,0.00
2018-11-29T03:04:20.778Z,0.00
2018-11-29T03:05:20.792Z,0.00
2018-11-29T03:06:20.793Z,0.00
2018-11-29T03:07:20.806Z,0.00
2018-11-29T03:08:20.850Z,0.00
2018-11-29T03:09:20.821Z,0.00
2018-11-29T03:10:20.835Z,0.00
2018-11-29T03:11:20.835Z,0.00
2018-11-29T03:12:20.848Z,0.00
2018-11-29T03:13:20.865Z,0.00
2018-11-29T03:14:20.863Z,0.00
2018-11-29T03:15:20.890Z,0.00
2018-11-29T03:16:20.878Z,0.00
2018-11-29T03:17:20.893Z,0.00
2018-11-29T03:18:20.905Z,0.00
2018-11-29T03:19:20.907Z,0.00
2018-11-29T03:20:20.923Z,0.00
2018-11-29T03:21:20.920Z,0.00
2018-11-29T03:22:20.935Z,0.00
2018-11-29T03:23:20.948Z,0.00
2018-11-29T03:24:20.954Z,0.00
2018-11-29T03:25:20.963Z,0.00
2018-11-29T03:26:20.975Z,0.00
2018-11-29T03:27:20.977Z,0.00
2018-11-29T03:28:20.994Z,0.00
2018-11-29T03:29:20.992Z,0.00
2018-11-29T03:30:21.009Z,0.00
2018-11-29T03:31:21.007Z,0.00
2018-11-29T03:32:21.031Z,0.00
2018-11-29T03:33:21.038Z,0.00
2018-11-29T03:34:21.032Z,0.00
2018-11-29T03:35:21.051Z,0.00
2018-11-29T03:36:21.060Z,0.00
2018-11-29T03:37:21.062Z,0.00
2018-11-29T03:38:21.075Z,0.00
2018-11-29T03:39:21.077Z,0.00
2018-11-29T03:40:21.089Z,0.00
2018-11-29T03:41:21.106Z,0.00
2018-11-29T03:42:21.107Z,0.00
2018-11-29T03:43:21.117Z,0.00
2018-11-29T03:44:21.120Z,0.00
2018-11-29T03:45:21.133Z,0.00
2018-11-29T03:46:21.146Z,0.00
2018-11-29T03:47:21.159Z,0.00
2018-11-29T03:48:21.163Z,0.00
2018-11-29T03:49:21.174Z,0.00
2018-11-29T03:50:21.174Z,0.00
2018-11-29T03:51:21.194Z,0.00
2018-11-29T03:52:21.189Z,0.00
2018-11-29T03:53:21.202Z,0.00
2018-11-29T03:54:21.221Z,0.00
2018-11-29T03:55:21.218Z,0.00
2018-11-29T03:56:21.231Z,0.00
2018-11-29T03:57:21.234Z,0.00
2018-11-29T03:58:21.246Z,0.00
2018-11-29T03:59:21.259Z,0.00
2018-11-29T04:00:21.277Z,0.00
2018-11-29T04:01:21.277Z,0.00
2018-11-29T04:02:21.287Z,0.00
2018-11-29T04:03:21.288Z,0.00
2018-11-29T04:04:21.305Z,0.00
2018-11-29T04:05:21.303Z,0.00
2018-11-29T04:06:21.316Z,0.00
2018-11-29T04:07:21.330Z,0.00
2018-11-29T04:08:21.336Z,0.00
2018-11-29T04:09:21.346Z,0.00
2018-11-29T04:10:21.358Z,0.00
2018-11-29T04:11:21.361Z,0.00
2018-11-29T04:12:21.372Z,0.00
2018-11-29T04:13:21.373Z,0.00
2018-11-29T04:14:21.388Z,0.00
2018-11-29T04:15:21.406Z,0.00
2018-11-29T04:16:21.402Z,0.00
2018-11-29T04:17:21.414Z,0.00
2018-11-29T04:18:21.429Z,0.00
2018-11-29T04:19:21.430Z,0.00
2018-11-29T04:20:21.443Z,0.00
2018-11-29T04:21:21.445Z,0.00
2018-11-29T04:22:21.457Z,0.00
2018-11-29T04:23:21.471Z,0.00
2018-11-29T04:24:21.472Z,0.00
2018-11-29T04:25:21.485Z,0.00
2018-11-29T04:26:21.507Z,0.00
2018-11-29T04:27:21.504Z,0.00
2018-11-29T04:28:21.513Z,0.00
2018-11-29T04:29:21.515Z,0.00
2018-11-29T04:30:21.540Z,0.00
2018-11-29T04:31:21.544Z,0.00
2018-11-29T04:32:21.546Z,0.00
2018-11-29T04:33:21.559Z,0.00
2018-11-29T04:34:21.557Z,0.00
2018-11-29T04:35:21.570Z,0.00
2018-11-29T04:36:21.585Z,0.00
2018-11-29T04:37:21.585Z,0.00
2018-11-29T04:38:21.604Z,0.00
2018-11-29T04:39:21.615Z,0.00
2018-11-29T04:40:21.614Z,0.00
2018-11-29T04:41:21.627Z,0.00
2018-11-29T04:42:21.629Z,0.00
2018-11-29T04:43:21.642Z,0.00
2018-11-29T04:44:21.655Z,0.00
2018-11-29T04:45:21.656Z,0.00
2018-11-29T04:46:21.670Z,0.00
2018-11-29T04:47:21.683Z,0.00
2018-11-29T04:48:21.684Z,0.00
2018-11-29T04:49:21.698Z,0.00
2018-11-29T04:50:21.703Z,0.00
2018-11-29T04:51:21.712Z,0.00
2018-11-29T04:52:21.726Z,0.00
2018-11-29T04:53:21.727Z,0.00
2018-11-29T04:54:21.741Z,0.00
2018-11-29T04:55:21.755Z,0.00
2018-11-29T04:56:21.757Z,0.00
2018-11-29T04:57:21.768Z,0.00
2018-11-29T04:58:21.770Z,0.00
2018-11-29T04:59:21.783Z,0.00
2018-11-29T05:00:21.796Z,0.00
2018-11-29T05:01:21.797Z,0.00
2018-11-29T05:02:21.812Z,0.00
2018-11-29T05:03:21.824Z,0.00
2018-11-29T05:04:21.825Z,0.00
2018-11-29T05:05:21.840Z,0.00
2018-11-29T05:06:21.854Z,0.00
2018-11-29T05:07:21.853Z,0.00
2018-11-29T05:08:21.877Z,0.00
2018-11-29T05:09:21.871Z,0.00
2018-11-29T05:10:21.883Z,0.00
2018-11-29T05:11:21.895Z,0.00
2018-11-29T05:12:21.898Z,0.00
2018-11-29T05:13:21.909Z,0.00
2018-11-29T05:14:21.924Z,0.00
2018-11-29T05:15:21.924Z,0.00
2018-11-29T05:16:21.938Z,0.00
2018-11-29T05:17:21.952Z,0.00
2018-11-29T05:18:21.953Z,0.00
2018-11-29T05:19:21.967Z,0.00
2018-11-29T05:20:21.966Z,0.00
2018-11-29T05:21:21.981Z,0.00
2018-11-29T05:22:21.994Z,0.00
2018-11-29T05:23:21.995Z,0.00
2018-11-29T05:24:22.009Z,0.00
2018-11-29T05:25:22.023Z,0.00
2018-11-29T05:26:22.031Z,0.00
2018-11-29T05:27:22.037Z,0.00
2018-11-29T05:28:22.038Z,0.00
2018-11-29T05:29:22.050Z,0.00
2018-11-29T05:30:22.065Z,0.00
2018-11-29T05:31:22.070Z,0.00
2018-11-29T05:32:22.079Z,0.00
2018-11-29T05:33:22.092Z,0.00
2018-11-29T05:34:22.094Z,0.00
2018-11-29T05:35:22.107Z,0.00
2018-11-29T05:36:22.122Z,0.00
2018-11-29T05:37:22.124Z,0.00
2018-11-29T05:38:22.135Z,0.00
2018-11-29T05:39:22.137Z,0.00
2018-11-29T05:40:22.400Z,0.00
2018-11-29T05:41:22.167Z,0.00
2018-11-29T05:42:22.167Z,0.00
2018-11-29T05:43:22.179Z,0.00
2018-11-29T05:44:22.191Z,0.00
2018-11-29T05:45:22.193Z,0.00
2018-11-29T05:46:22.207Z,0.00
2018-11-29T05:47:22.219Z,0.00
2018-11-29T05:48:22.220Z,0.00
2018-11-29T05:49:22.238Z,0.00
2018-11-29T05:50:22.248Z,0.00
2018-11-29T05:51:22.261Z,0.00
2018-11-29T05:52:22.263Z,0.00
2018-11-29T05:53:22.276Z,0.00
2018-11-29T05:54:22.276Z,0.00
2018-11-29T05:55:22.291Z,0.00
2018-11-29T05:56:22.293Z,0.00
2018-11-29T05:57:22.318Z,0.00
2018-11-29T05:58:22.318Z,0.00
2018-11-29T05:59:22.320Z,0.00
2018-11-29T06:00:22.334Z,0.00
2018-11-29T06:01:22.347Z,0.00
2018-11-29T06:02:22.350Z,0.00
2018-11-29T06:03:22.361Z,0.00
2018-11-29T06:04:22.374Z,0.00
2018-11-29T06:05:22.376Z,0.00
2018-11-29T06:06:22.389Z,0.00
2018-11-29T06:07:22.404Z,0.00
2018-11-29T06:08:22.405Z,4.00
2018-11-29T06:09:22.418Z,4.00
2018-11-29T06:10:22.435Z,0.00
2018-11-29T06:11:22.435Z,0.00
2018-11-29T06:12:22.495Z,0.00
2018-11-29T06:13:22.460Z,4.00
2018-11-29T06:14:22.460Z,4.00
2018-11-29T06:15:22.473Z,0.00
2018-11-29T06:16:22.487Z,4.00
2018-11-29T06:17:22.501Z,4.00
2018-11-29T06:18:22.501Z,4.00
2018-11-29T06:19:22.504Z,4.00
2018-11-29T06:20:22.520Z,4.00
2018-11-29T06:21:22.529Z,4.00
2018-11-29T06:22:22.543Z,4.00
2018-11-29T06:23:22.545Z,8.00
2018-11-29T06:24:22.557Z,8.00
2018-11-29T06:25:22.568Z,8.00
2018-11-29T06:26:22.574Z,12.00
2018-11-29T06:27:22.586Z,12.00
2018-11-29T06:28:22.588Z,16.00
2018-11-29T06:29:22.600Z,20.00
2018-11-29T06:30:22.626Z,20.00
2018-11-29T06:31:22.615Z,20.00
2018-11-29T06:32:22.629Z,28.00
2018-11-29T06:33:22.642Z,32.00
2018-11-29T06:34:22.656Z,36.00
2018-11-29T06:35:22.658Z,44.00
2018-11-29T06:36:22.683Z,52.00
2018-11-29T06:37:22.671Z,60.00
2018-11-29T06:38:22.685Z,68.00
2018-11-29T06:39:22.698Z,84.00
2018-11-29T06:40:22.699Z,96.00
2018-11-29T06:41:22.713Z,112.00
2018-11-29T06:42:22.726Z,128.00
2018-11-29T06:43:22.727Z,148.00
2018-11-29T06:44:22.744Z,172.00
2018-11-29T06:45:22.754Z,188.00
2018-11-29T06:46:22.755Z,200.00
2018-11-29T06:47:22.771Z,216.00
2018-11-29T06:48:22.782Z,232.00
2018-11-29T06:49:22.783Z,256.00
2018-11-29T06:50:22.797Z,268.00
2018-11-29T06:51:22.810Z,264.00
2018-11-29T06:52:22.812Z,252.00
2018-11-29T06:53:22.825Z,252.00
2018-11-29T06:54:22.838Z,256.00
2018-11-29T06:55:22.839Z,264.00
2018-11-29T06:56:22.855Z,280.00
2018-11-29T06:57:22.866Z,288.00
2018-11-29T06:58:22.869Z,304.00
2018-11-29T06:59:22.881Z,324.00
2018-11-29T07:00:22.895Z,340.00
2018-11-29T07:01:22.911Z,360.00
2018-11-29T07:02:22.909Z,384.00
2018-11-29T07:03:22.923Z,400.00
2018-11-29T07:04:22.924Z,420.00
2018-11-29T07:05:22.938Z,440.00
2018-11-29T07:06:22.950Z,460.00
2018-11-29T07:07:22.953Z,488.00
2018-11-29T07:08:22.968Z,516.00
2018-11-29T07:09:22.991Z,544.00
2018-11-29T07:10:22.981Z,584.00
2018-11-29T07:11:22.994Z,620.00
2018-11-29T07:12:23.011Z,656.00
2018-11-29T07:13:23.009Z,696.00
2018-11-29T07:14:23.023Z,748.00
2018-11-29T07:15:23.048Z,804.00
2018-11-29T07:16:23.037Z,872.00
2018-11-29T07:17:23.054Z,932.00
2018-11-29T07:18:23.063Z,972.00
2018-11-29T07:19:23.064Z,996.00
2018-11-29T07:20:23.079Z,1024.00
2018-11-29T07:21:23.093Z,1052.00
2018-11-29T07:22:23.093Z,1068.00
2018-11-29T07:23:23.106Z,1092.00
2018-11-29T07:24:23.119Z,1128.00
2018-11-29T07:25:23.133Z,1176.00
2018-11-29T07:26:23.137Z,1228.00
2018-11-29T07:27:23.150Z,1304.00
2018-11-29T07:28:23.149Z,1392.00
2018-11-29T07:29:23.163Z,1456.00
2018-11-29T07:30:23.175Z,1508.00
2018-11-29T07:31:23.177Z,1572.00
2018-11-29T07:32:23.190Z,1628.00
2018-11-29T07:33:23.203Z,1696.00
2018-11-29T07:34:23.205Z,1756.00
2018-11-29T07:35:23.218Z,1784.00
2018-11-29T07:36:23.232Z,1764.00
2018-11-29T07:37:23.234Z,1744.00
2018-11-29T07:38:23.246Z,1736.00
2018-11-29T07:39:23.260Z,1740.00
2018-11-29T07:40:23.285Z,1764.00
2018-11-29T07:41:23.274Z,1808.00
2018-11-29T07:42:23.288Z,1868.00
2018-11-29T07:43:23.292Z,1940.00
2018-11-29T07:44:23.304Z,1992.00
2018-11-29T07:45:23.316Z,2008.00
2018-11-29T07:46:23.329Z,2052.00
2018-11-29T07:47:23.330Z,2140.00
2018-11-29T07:48:23.357Z,2228.00
2018-11-29T07:49:23.359Z,2288.00
2018-11-29T07:50:23.361Z,2344.00
2018-11-29T07:51:23.373Z,2400.00
2018-11-29T07:52:23.385Z,2464.00
2018-11-29T07:53:23.387Z,2496.00
2018-11-29T07:54:23.413Z,2540.00
2018-11-29T07:55:23.417Z,2612.00
2018-11-29T07:56:23.416Z,2696.00
2018-11-29T07:57:23.427Z,2776.00
2018-11-29T07:58:23.442Z,2864.00
2018-11-29T07:59:23.444Z,2944.00
2018-11-29T08:00:23.456Z,3052.00
2018-11-29T08:01:23.472Z,3176.00
2018-11-29T08:02:23.472Z,3236.00
2018-11-29T08:03:23.484Z,3260.00
2018-11-29T08:04:23.498Z,3296.00
2018-11-29T08:05:23.500Z,3356.00
2018-11-29T08:06:23.512Z,3436.00
2018-11-29T08:07:23.529Z,3544.00
2018-11-29T08:08:23.540Z,3652.00
2018-11-29T08:09:23.541Z,3768.00
2018-11-29T08:10:23.557Z,3888.00
2018-11-29T08:11:23.567Z,4008.00
2018-11-29T08:12:23.569Z,4136.00
2018-11-29T08:13:23.583Z,4252.00
2018-11-29T08:14:23.595Z,4356.00
2018-11-29T08:15:23.596Z,4448.00
2018-11-29T08:16:23.610Z,4540.00
2018-11-29T08:17:23.623Z,4640.00
2018-11-29T08:18:23.638Z,4704.00
2018-11-29T08:19:23.639Z,4756.00
2018-11-29T08:20:23.653Z,4836.00
2018-11-29T08:21:23.666Z,4924.00
2018-11-29T08:22:23.668Z,5040.00
2018-11-29T08:23:23.692Z,5212.00
2018-11-29T08:24:23.694Z,5292.00
2018-11-29T08:25:23.709Z,5304.00
2018-11-29T08:26:23.708Z,5356.00
2018-11-29T08:27:23.722Z,5396.00
2018-11-29T08:28:23.735Z,5408.00
2018-11-29T08:29:23.737Z,5504.00
2018-11-29T08:30:23.750Z,5668.00
2018-11-29T08:31:23.764Z,5872.00
2018-11-29T08:32:23.777Z,6060.00
2018-11-29T08:33:23.777Z,6164.00
2018-11-29T08:34:23.813Z,6184.00
2018-11-29T08:35:23.806Z,6200.00
2018-11-29T08:36:23.818Z,6240.00
2018-11-29T08:37:23.820Z,6268.00
2018-11-29T08:38:23.833Z,6288.00
2018-11-29T08:39:23.846Z,6332.00
2018-11-29T08:40:23.863Z,6360.00
2018-11-29T08:41:23.873Z,6392.00
2018-11-29T08:42:23.874Z,6412.00
2018-11-29T08:43:23.900Z,6444.00
2018-11-29T08:44:23.903Z,6440.00
2018-11-29T08:45:23.904Z,6428.00
2018-11-29T08:46:23.916Z,6388.00
2018-11-29T08:47:23.930Z,6340.00
2018-11-29T08:48:23.945Z,6180.00
2018-11-29T08:49:23.957Z,5996.00
2018-11-29T08:50:23.958Z,5928.00
2018-11-29T08:51:23.973Z,5892.00
2018-11-29T08:52:24.061Z,5856.00
2018-11-29T08:53:24.000Z,5808.00
2018-11-29T08:54:24.012Z,5760.00
2018-11-29T08:55:24.013Z,5720.00
2018-11-29T08:56:24.029Z,5508.00
2018-11-29T08:57:24.040Z,5388.00
2018-11-29T08:58:24.055Z,5312.00
2018-11-29T08:59:24.055Z,5200.00
2018-11-29T09:00:24.069Z,5144.00
2018-11-29T09:01:24.083Z,5100.00
2018-11-29T09:02:24.095Z,5032.00
2018-11-29T09:03:24.109Z,4996.00
2018-11-29T09:04:24.110Z,4972.00
2018-11-29T09:05:24.123Z,4984.00
2018-11-29T09:06:24.138Z,5032.00
2018-11-29T09:07:24.150Z,5064.00
2018-11-29T09:08:24.164Z,5084.00
2018-11-29T09:09:24.166Z,5108.00
2018-11-29T09:10:24.178Z,5136.00
2018-11-29T09:11:24.193Z,5172.00
2018-11-29T09:12:24.206Z,5204.00
2018-11-29T09:13:24.208Z,5244.00
2018-11-29T09:14:24.220Z,5324.00
2018-11-29T09:15:24.233Z,5448.00
2018-11-29T09:16:24.248Z,5620.00
2018-11-29T09:17:24.261Z,5840.00
2018-11-29T09:18:24.262Z,6024.00
2018-11-29T09:19:24.277Z,6168.00
2018-11-29T09:20:24.288Z,6248.00
2018-11-29T09:21:24.305Z,6284.00
2018-11-29T09:22:24.315Z,6340.00
2018-11-29T09:23:24.317Z,6484.00
2018-11-29T09:24:24.331Z,6736.00
2018-11-29T09:25:24.345Z,6928.00
2018-11-29T09:26:24.362Z,7244.00
2018-11-29T09:27:24.371Z,7628.00
2018-11-29T09:28:24.386Z,7828.00
2018-11-29T09:29:24.390Z,7812.00
2018-11-29T09:30:24.401Z,7724.00
2018-11-29T09:31:24.413Z,7632.00
2018-11-29T09:32:24.426Z,7600.00
2018-11-29T09:33:24.428Z,7656.00
2018-11-29T09:34:24.441Z,7660.00
2018-11-29T09:35:24.454Z,7688.00
2018-11-29T09:36:24.469Z,7892.00
2018-11-29T09:37:24.481Z,7908.00
2018-11-29T09:38:24.484Z,7980.00
2018-11-29T09:39:24.497Z,7956.00
2018-11-29T09:40:24.522Z,7904.00
2018-11-29T09:41:24.524Z,7896.00
2018-11-29T09:42:24.537Z,7700.00
2018-11-29T09:43:24.550Z,7364.00
2018-11-29T09:44:24.553Z,7112.00
2018-11-29T09:45:24.565Z,6980.00
2018-11-29T09:46:24.579Z,6952.00
2018-11-29T09:47:24.592Z,6976.00
2018-11-29T09:48:24.608Z,7020.00
2018-11-29T09:49:24.622Z,6972.00
2018-11-29T09:50:24.633Z,6900.00
2018-11-29T09:51:24.634Z,6740.00
2018-11-29T09:52:24.654Z,6664.00
2018-11-29T09:53:24.661Z,6408.00
2018-11-29T09:54:24.674Z,6068.00
2018-11-29T09:55:24.690Z,6012.00
2018-11-29T09:56:24.701Z,5928.00
2018-11-29T09:57:24.705Z,5728.00
2018-11-29T09:58:24.717Z,5464.00
2018-11-29T09:59:24.742Z,5228.00
2018-11-29T10:00:27.971Z,4956.00
2018-11-29T10:09:50.891Z,3188.00
2018-11-29T10:10:50.904Z,3208.00
2018-11-29T10:11:50.917Z,3264.00
2018-11-29T10:12:50.933Z,3360.00
2018-11-29T10:13:50.947Z,3496.00
2018-11-29T10:14:50.945Z,3704.00
2018-11-29T10:15:50.960Z,3912.00
2018-11-29T10:16:50.973Z,3896.00
2018-11-29T10:17:50.987Z,3876.00
2018-11-29T10:18:51.009Z,3900.00
2018-11-29T10:19:51.000Z,4044.00
2018-11-29T10:20:51.016Z,4396.00
2018-11-29T10:21:51.041Z,4544.00
2018-11-29T10:22:51.043Z,4564.00
2018-11-29T10:23:51.055Z,4440.00
2018-11-29T10:24:51.057Z,4416.00
2018-11-29T10:25:51.070Z,4452.00
2018-11-29T10:26:51.083Z,4712.00
2018-11-29T10:27:51.096Z,4852.00
2018-11-29T10:28:51.110Z,4904.00
2018-11-29T10:29:51.124Z,5000.00
2018-11-29T10:30:51.125Z,5292.00
2018-11-29T10:31:51.138Z,5512.00
2018-11-29T10:32:51.153Z,5632.00
2018-11-29T10:33:51.165Z,5760.00
2018-11-29T10:34:51.179Z,5948.00
2018-11-29T10:35:51.183Z,6132.00
2018-11-29T10:36:51.193Z,6224.00
2018-11-29T10:37:51.209Z,6380.00
2018-11-29T10:38:51.220Z,6640.00
2018-11-29T10:39:51.236Z,6928.00
2018-11-29T10:40:51.236Z,7172.00
2018-11-29T10:41:51.249Z,7332.00
2018-11-29T10:42:51.262Z,7516.00
2018-11-29T10:43:51.275Z,7692.00
2018-11-29T10:44:51.295Z,7820.00
2018-11-29T10:45:51.303Z,7916.00
2018-11-29T10:46:51.304Z,7904.00
2018-11-29T10:47:52.576Z,7972.00
2018-11-29T10:48:51.330Z,7984.00
2018-11-29T10:49:51.346Z,7912.00
2018-11-29T10:50:51.358Z,7880.00
2018-11-29T10:51:51.372Z,7852.00
2018-11-29T10:52:51.397Z,7840.00
2018-11-29T10:53:51.397Z,7808.00
2018-11-29T10:54:51.401Z,7724.00
2018-11-29T10:55:51.412Z,7640.00
2018-11-29T10:56:51.428Z,7484.00
2018-11-29T10:57:51.454Z,7252.00
2018-11-29T10:58:51.454Z,7148.00
2018-11-29T10:59:51.467Z,6968.00
2018-11-29T11:00:51.481Z,6788.00
2018-11-29T11:01:51.485Z,6640.00
2018-11-29T11:02:51.497Z,6584.00
2018-11-29T11:03:51.509Z,6568.00
2018-11-29T11:04:51.523Z,6504.00
2018-11-29T11:05:51.537Z,6464.00
2018-11-29T11:06:51.548Z,6408.00
2018-11-29T11:07:51.563Z,6340.00
2018-11-29T11:08:51.576Z,6272.00
2018-11-29T11:09:51.590Z,6216.00
2018-11-29T11:10:51.591Z,6140.00
2018-11-29T11:11:51.604Z,6116.00
2018-11-29T11:12:51.619Z,6088.00
2018-11-29T11:13:51.633Z,6056.00
2018-11-29T11:14:51.644Z,6012.00
2018-11-29T11:15:51.659Z,5960.00
2018-11-29T11:16:51.672Z,5992.00
2018-11-29T11:17:51.685Z,6028.00
2018-11-29T11:18:51.708Z,6080.00
2018-11-29T11:19:51.716Z,6084.00
2018-11-29T11:20:51.715Z,6104.00
2018-11-29T11:21:51.728Z,6156.00
2018-11-29T11:22:51.740Z,6172.00
2018-11-29T11:23:51.755Z,6200.00
2018-11-29T11:24:51.768Z,6140.00
2018-11-29T11:25:51.782Z,6112.00
2018-11-29T11:26:51.795Z,6084.00
2018-11-29T11:27:51.817Z,6096.00
2018-11-29T11:28:51.822Z,6120.00
2018-11-29T11:29:51.836Z,6096.00
2018-11-29T11:30:51.839Z,6080.00
2018-11-29T11:31:51.863Z,6000.00
2018-11-29T11:32:51.865Z,5944.00
2018-11-29T11:33:51.877Z,5904.00
2018-11-29T11:34:51.891Z,5856.00
2018-11-29T11:35:51.905Z,5820.00
2018-11-29T11:36:51.919Z,5772.00
2018-11-29T11:37:51.931Z,5704.00
2018-11-29T11:38:51.948Z,5576.00
2018-11-29T11:39:51.958Z,5504.00
2018-11-29T11:40:51.972Z,5452.00
2018-11-29T11:41:52.036Z,5436.00
2018-11-29T11:42:51.986Z,5416.00
2018-11-29T11:43:52.003Z,5384.00
2018-11-29T11:44:52.013Z,5416.00
2018-11-29T11:45:52.027Z,5424.00
2018-11-29T11:46:52.041Z,5464.00
2018-11-29T11:47:52.057Z,5496.00
2018-11-29T11:48:52.067Z,5536.00
2018-11-29T11:49:52.082Z,5572.00
2018-11-29T11:50:52.094Z,5592.00
2018-11-29T11:51:52.109Z,5620.00
2018-11-29T11:52:52.124Z,5644.00
2018-11-29T11:53:52.146Z,5684.00
2018-11-29T11:54:52.137Z,5720.00
2018-11-29T11:55:53.767Z,5744.00
2018-11-29T11:56:52.163Z,5776.00
2018-11-29T11:57:52.176Z,5804.00
2018-11-29T11:58:52.191Z,5856.00
2018-11-29T11:59:52.204Z,5916.00
2018-11-29T12:00:52.220Z,5956.00
2018-11-29T12:01:52.232Z,6008.00
2018-11-29T12:02:52.245Z,6052.00
2018-11-29T12:03:52.258Z,6064.00
2018-11-29T12:04:52.260Z,6096.00
2018-11-29T12:05:52.274Z,6160.00
2018-11-29T12:06:52.286Z,6192.00
2018-11-29T12:07:52.300Z,6228.00
2018-11-29T12:08:52.314Z,6264.00
2018-11-29T12:09:52.331Z,6340.00
2018-11-29T12:10:52.341Z,6340.00
2018-11-29T12:11:52.355Z,6368.00
2018-11-29T12:12:52.367Z,6400.00
2018-11-29T12:13:52.385Z,6420.00
2018-11-29T12:14:52.383Z,6400.00
2018-11-29T12:15:52.397Z,6368.00
2018-11-29T12:16:52.410Z,6356.00
2018-11-29T12:17:52.422Z,6344.00
2018-11-29T12:18:52.438Z,6352.00
2018-11-29T12:19:52.450Z,6332.00
2018-11-29T12:20:52.467Z,6292.00
2018-11-29T12:21:52.477Z,6280.00
2018-11-29T12:22:52.492Z,6244.00
2018-11-29T12:23:52.504Z,6192.00
2018-11-29T12:24:52.519Z,6168.00
2018-11-29T12:25:52.531Z,6152.00
2018-11-29T12:26:52.545Z,6136.00
2018-11-29T12:27:52.557Z,6104.00
2018-11-29T12:28:52.559Z,6072.00
2018-11-29T12:29:52.576Z,6016.00
2018-11-29T12:30:52.588Z,5944.00
2018-11-29T12:31:52.606Z,5884.00
2018-11-29T12:32:52.613Z,5844.00
2018-11-29T12:33:52.627Z,5836.00
2018-11-29T12:34:52.640Z,5848.00
2018-11-29T12:35:52.655Z,5824.00
2018-11-29T12:36:52.671Z,5784.00
2018-11-29T12:37:53.233Z,5744.00
2018-11-29T12:38:52.695Z,5724.00
2018-11-29T12:39:52.709Z,5688.00
2018-11-29T12:40:52.721Z,5640.00
2018-11-29T12:41:52.735Z,5600.00
2018-11-29T12:42:52.737Z,5576.00
2018-11-29T12:43:52.750Z,5552.00
2018-11-29T12:44:52.767Z,5548.00
2018-11-29T12:45:52.778Z,5552.00
2018-11-29T12:46:52.794Z,5572.00
2018-11-29T12:47:52.804Z,5584.00
2018-11-29T12:48:52.821Z,5604.00
2018-11-29T12:49:52.832Z,5628.00
2018-11-29T12:50:52.848Z,5652.00